createdAt,value
2018-12-10T00:01:07.777Z,98790.80
2018-12-10T00:02:37.702Z,98788.24
2018-12-10T00:04:07.730Z,98781.33
2018-12-10T00:05:37.625Z,98788.77
2018-12-10T00:07:07.705Z,98790.63
2018-12-10T00:08:37.815Z,98795.62
2018-12-10T00:10:08.218Z,98799.05
2018-12-10T00:11:38.251Z,98799.28
2018-12-10T00:13:08.167Z,98801.14
2018-12-10T00:14:38.042Z,98808.36
2018-12-10T00:16:08.078Z,98796.27
2018-12-10T00:17:37.974Z,98796.81
2018-12-10T00:19:08.086Z,98790.71
2018-12-10T00:20:38.023Z,98793.27
2018-12-10T00:22:08.103Z,98804.50
2018-12-10T00:23:37.996Z,98812.61
2018-12-10T00:25:08.034Z,98820.72
2018-12-10T00:26:38.129Z,98819.41
2018-12-10T00:28:08.153Z,98820.29
2018-12-10T00:29:38.174Z,98820.17
2018-12-10T00:31:08.252Z,98818.17
2018-12-10T00:32:38.215Z,98823.61
2018-12-10T00:34:08.476Z,98817.44
2018-12-10T00:35:38.388Z,98823.27
2018-12-10T00:37:08.739Z,98819.75
2018-12-10T00:38:38.618Z,98816.89
2018-12-10T00:40:08.628Z,98821.64
2018-12-10T00:41:38.520Z,98821.95
2018-12-10T00:43:08.422Z,98819.28
2018-12-10T00:44:38.302Z,98815.81
2018-12-10T00:46:08.329Z,98819.94
2018-12-10T00:47:38.234Z,98829.59
2018-12-10T00:49:08.333Z,98824.95
2018-12-10T00:50:38.247Z,98829.94
2018-12-10T00:52:08.168Z,98827.81
2018-12-10T00:53:38.060Z,98837.63
2018-12-10T00:55:07.968Z,98840.83
2018-12-10T00:56:37.882Z,98844.16
2018-12-10T00:58:07.782Z,98840.83
2018-12-10T00:59:37.671Z,98844.66
2018-12-10T01:01:07.576Z,98849.94
2018-12-10T01:02:37.595Z,98854.84
2018-12-10T01:04:07.498Z,98853.36
2018-12-10T01:05:37.391Z,98853.47
2018-12-10T01:07:07.570Z,98857.57
2018-12-10T01:08:37.460Z,98857.13
2018-12-10T01:10:07.655Z,98856.58
2018-12-10T01:11:37.531Z,98857.47
2018-12-10T01:13:07.581Z,98865.00
2018-12-10T01:14:37.562Z,98868.30
2018-12-10T01:16:07.459Z,98874.23
2018-12-10T01:17:37.386Z,98873.08
2018-12-10T01:19:07.270Z,98873.52
2018-12-10T01:20:37.330Z,98876.19
2018-12-10T01:22:07.251Z,98882.84
2018-12-10T01:23:37.136Z,98879.75
2018-12-10T01:25:07.194Z,98881.70
2018-12-10T01:26:37.088Z,98884.34
2018-12-10T01:28:07.001Z,98886.70
2018-12-10T01:29:36.888Z,98886.71
2018-12-10T01:31:06.761Z,98894.95
2018-12-10T01:32:43.375Z,98889.53
2018-12-10T01:34:13.273Z,98886.55
2018-12-10T01:35:43.159Z,98886.20
2018-12-10T01:37:13.084Z,98891.14
2018-12-10T01:38:42.971Z,98892.37
2018-12-10T01:40:12.892Z,98905.77
2018-12-10T01:41:43.397Z,98900.71
2018-12-10T01:43:13.432Z,98909.64
2018-12-10T01:44:43.509Z,98899.56
2018-12-10T01:46:13.517Z,98913.98
2018-12-10T01:47:43.419Z,98918.34
2018-12-10T01:49:13.322Z,98917.06
2018-12-10T01:50:43.208Z,98925.22
2018-12-10T01:52:13.114Z,98922.84
2018-12-10T01:53:42.997Z,98925.27
2018-12-10T01:55:13.032Z,98927.33
2018-12-10T01:56:42.954Z,98929.27
2018-12-10T01:58:12.876Z,98932.30
2018-12-10T01:59:42.890Z,98934.92
2018-12-10T02:01:13.134Z,98937.86
2018-12-10T02:02:43.051Z,98937.62
2018-12-10T02:04:13.077Z,98931.29
2018-12-10T02:05:42.984Z,98933.17
2018-12-10T02:07:12.902Z,98933.17
2018-12-10T02:08:42.786Z,98935.08
2018-12-10T02:10:12.827Z,98934.53
2018-12-10T02:11:42.735Z,98943.77
2018-12-10T02:13:12.654Z,98947.37
2018-12-10T02:14:42.559Z,98945.30
2018-12-10T02:16:12.463Z,98950.83
2018-12-10T02:17:42.390Z,98948.80
2018-12-10T02:19:12.332Z,98952.67
2018-12-10T02:20:42.367Z,98949.39
2018-12-10T02:22:12.295Z,98943.69
2018-12-10T02:23:42.190Z,98952.67
2018-12-10T02:25:12.085Z,98953.65
2018-12-10T02:26:42.103Z,98959.52
2018-12-10T02:28:12.022Z,98964.89
2018-12-10T02:29:41.929Z,98968.48
2018-12-10T02:31:11.855Z,98963.53
2018-12-10T02:32:41.878Z,98969.02
2018-12-10T02:34:11.794Z,98967.90
2018-12-10T02:35:41.709Z,98968.56
2018-12-10T02:37:11.647Z,98957.92
2018-12-10T02:38:41.576Z,98957.92
2018-12-10T02:40:11.614Z,98969.55
2018-12-10T02:41:41.696Z,98978.22
2018-12-10T02:43:11.715Z,98974.49
2018-12-10T02:44:41.626Z,98974.27
2018-12-10T02:46:11.526Z,98980.13
2018-12-10T02:47:41.459Z,98984.97
2018-12-10T02:49:11.355Z,98986.56
2018-12-10T02:50:41.393Z,98988.06
2018-12-10T02:52:11.398Z,98990.39
2018-12-10T02:53:41.324Z,98987.61
2018-12-10T02:55:11.353Z,99002.67
2018-12-10T02:56:41.575Z,99001.75
2018-12-10T02:58:11.670Z,99001.69
2018-12-10T02:59:41.568Z,99010.61
2018-12-10T03:01:11.599Z,99015.32
2018-12-10T03:02:41.645Z,99008.00
2018-12-10T03:04:11.746Z,99013.69
2018-12-10T03:05:41.967Z,99019.14
2018-12-10T03:07:11.874Z,99016.38
2018-12-10T03:08:41.907Z,99021.18
2018-12-10T03:10:11.963Z,99020.80
2018-12-10T03:11:41.869Z,99019.46
2018-12-10T03:13:12.085Z,99021.69
2018-12-10T03:14:42.101Z,99021.23
2018-12-10T03:16:12.019Z,99022.29
2018-12-10T03:20:06.573Z,99018.41
2018-12-10T03:21:36.466Z,99018.24
2018-12-10T03:23:06.720Z,99023.12
2018-12-10T03:24:36.631Z,99024.70
2018-12-10T03:26:06.548Z,99028.37
2018-12-10T03:27:36.594Z,99019.99
2018-12-10T03:29:06.598Z,99024.61
2018-12-10T03:30:36.537Z,99031.36
2018-12-10T03:32:06.687Z,99042.45
2018-12-10T03:33:36.681Z,99036.61
2018-12-10T03:35:28.282Z,99051.73
2018-12-10T03:36:58.191Z,99045.89
2018-12-10T03:38:28.262Z,99039.14
2018-12-10T03:39:58.156Z,99029.79
2018-12-10T03:42:02.569Z,99034.44
2018-12-10T03:43:32.616Z,99033.61
2018-12-10T03:45:02.638Z,99041.09
2018-12-10T03:46:32.665Z,99042.69
2018-12-10T03:48:02.600Z,99037.65
2018-12-10T03:49:32.676Z,99046.66
2018-12-10T03:51:02.704Z,99050.75
2018-12-10T03:52:32.746Z,99058.09
2018-12-10T03:54:10.375Z,99055.47
2018-12-10T03:55:40.283Z,99055.36
2018-12-10T03:57:10.194Z,99059.34
2018-12-10T03:58:40.103Z,99064.06
2018-12-10T04:00:10.125Z,99062.24
2018-12-10T04:01:40.052Z,99061.86
2018-12-10T04:03:09.978Z,99053.77
2018-12-10T04:04:39.979Z,99055.84
2018-12-10T04:06:09.900Z,99054.23
2018-12-10T04:07:39.981Z,99056.31
2018-12-10T04:09:09.948Z,99058.82
2018-12-10T04:10:39.979Z,99056.70
2018-12-10T04:12:10.007Z,99057.30
2018-12-10T04:13:39.901Z,99057.42
2018-12-10T04:15:10.155Z,99062.30
2018-12-10T04:16:40.101Z,99066.03
2018-12-10T04:18:10.000Z,99066.42
2018-12-10T04:19:39.898Z,99070.99
2018-12-10T04:21:09.914Z,99070.78
2018-12-10T04:22:39.810Z,99069.20
2018-12-10T04:24:09.828Z,99063.44
2018-12-10T04:25:39.733Z,99069.42
2018-12-10T04:27:09.646Z,99069.97
2018-12-10T04:28:39.644Z,99076.07
2018-12-10T04:30:09.535Z,99067.62
2018-12-10T04:31:39.416Z,99068.91
2018-12-10T04:33:09.312Z,99070.63
2018-12-10T04:34:39.199Z,99076.02
2018-12-10T04:36:09.203Z,99076.61
2018-12-10T04:37:40.636Z,99072.36
2018-12-10T04:39:10.632Z,99081.22
2018-12-10T04:40:40.656Z,99085.03
2018-12-10T04:42:10.564Z,99088.73
2018-12-10T04:43:40.549Z,99087.30
2018-12-10T04:45:10.647Z,99085.97
2018-12-10T04:46:40.550Z,99091.91
2018-12-10T04:48:10.493Z,99096.72
2018-12-10T04:49:40.386Z,99099.85
2018-12-10T04:51:10.356Z,99107.93
2018-12-10T04:52:40.272Z,99104.12
2018-12-10T04:54:10.157Z,99104.22
2018-12-10T04:55:40.048Z,99103.16
2018-12-10T04:57:10.227Z,99104.31
2018-12-10T04:58:40.098Z,99108.77
2018-12-10T05:00:10.102Z,99100.55
2018-12-10T05:01:40.215Z,99095.26
2018-12-10T05:03:10.127Z,99095.13
2018-12-10T05:04:40.003Z,99100.97
2018-12-10T05:06:18.606Z,99105.98
2018-12-10T05:07:48.662Z,99101.62
2018-12-10T05:09:18.777Z,99111.52
2018-12-10T05:10:48.671Z,99113.38
2018-12-10T05:12:18.594Z,99115.17
2018-12-10T05:13:48.486Z,99116.44
2018-12-10T05:15:18.371Z,99116.75
2018-12-10T05:16:48.242Z,99118.19
2018-12-10T05:18:18.147Z,99121.14
2018-12-10T05:19:48.070Z,99116.06
2018-12-10T05:21:18.007Z,99117.13
2018-12-10T05:22:47.925Z,99124.13
2018-12-10T05:24:17.819Z,99130.69
2018-12-10T05:25:47.719Z,99130.52
2018-12-10T05:27:17.650Z,99130.48
2018-12-10T05:28:47.669Z,99140.66
2018-12-10T05:30:17.566Z,99135.98
2018-12-10T05:31:47.462Z,99131.38
2018-12-10T05:33:17.507Z,99136.64
2018-12-10T05:34:47.383Z,99140.24
2018-12-10T05:36:17.383Z,99140.00
2018-12-10T05:37:47.315Z,99133.33
2018-12-10T05:39:17.232Z,99137.45
2018-12-10T05:40:47.151Z,99137.56
2018-12-10T05:42:17.074Z,99136.50
2018-12-10T05:43:46.974Z,99143.83
2018-12-10T05:45:17.042Z,99148.29
2018-12-10T05:46:47.055Z,99154.23
2018-12-10T05:48:16.951Z,99157.67
2018-12-10T05:49:46.847Z,99158.29
2018-12-10T05:51:16.761Z,99158.56
2018-12-10T05:52:46.668Z,99154.20
2018-12-10T05:54:16.685Z,99160.91
2018-12-10T05:55:46.727Z,99159.94
2018-12-10T05:57:16.631Z,99159.19
2018-12-10T05:58:46.527Z,99163.48
2018-12-10T06:00:16.556Z,99164.71
2018-12-10T06:01:46.452Z,99161.41
2018-12-10T06:03:16.460Z,99170.07
2018-12-10T06:04:46.374Z,99166.98
2018-12-10T06:06:16.258Z,99173.13
2018-12-10T06:07:46.170Z,99173.81
2018-12-10T06:09:16.187Z,99169.06
2018-12-10T06:10:46.104Z,99170.96
2018-12-10T06:12:16.006Z,99168.72
2018-12-10T06:13:45.918Z,99169.58
2018-12-10T06:15:15.978Z,99175.18
2018-12-10T06:16:45.994Z,99171.81
2018-12-10T06:18:15.900Z,99182.03
2018-12-10T06:19:45.912Z,99184.20
2018-12-10T06:21:15.815Z,99189.08
2018-12-10T06:22:45.707Z,99177.80
2018-12-10T06:24:15.715Z,99187.08
2018-12-10T06:25:45.624Z,99185.05
2018-12-10T06:27:15.678Z,99181.03
2018-12-10T06:28:45.581Z,99182.09
2018-12-10T06:30:15.483Z,99182.19
2018-12-10T06:31:45.536Z,99178.16
2018-12-10T06:33:15.460Z,99182.07
2018-12-10T06:34:45.355Z,99186.23
2018-12-10T06:36:15.251Z,99184.31
2018-12-10T06:37:45.267Z,99182.15
2018-12-10T06:39:15.387Z,99195.80
2018-12-10T06:40:45.331Z,99185.37
2018-12-10T06:42:15.236Z,99187.92
2018-12-10T06:43:45.369Z,99188.85
2018-12-10T06:45:15.442Z,99190.71
2018-12-10T06:46:45.541Z,99197.03
2018-12-10T06:48:15.459Z,99192.46
2018-12-10T06:49:45.494Z,99201.50
2018-12-10T06:51:15.559Z,99199.98
2018-12-10T06:52:45.616Z,99198.02
2018-12-10T06:54:15.568Z,99199.16
2018-12-10T06:55:45.472Z,99203.59
2018-12-10T06:57:15.382Z,99198.89
2018-12-10T06:58:45.294Z,99200.55
2018-12-10T07:00:15.323Z,99197.83
2018-12-10T07:01:45.231Z,99196.73
2018-12-10T07:03:15.145Z,99201.91
2018-12-10T07:04:45.060Z,99203.19
2018-12-10T07:06:36.088Z,99204.70
2018-12-10T07:08:06.007Z,99200.06
2018-12-10T07:09:35.935Z,99207.91
2018-12-10T07:11:05.868Z,99207.33
2018-12-10T07:12:35.849Z,99208.60
2018-12-10T07:14:05.799Z,99213.14
2018-12-10T07:15:35.710Z,99218.74
2018-12-10T07:17:05.994Z,99219.09
2018-12-10T07:18:36.081Z,99221.77
2018-12-10T07:20:06.824Z,99222.45
2018-12-10T07:21:36.710Z,99226.17
2018-12-10T07:23:06.634Z,99226.72
2018-12-10T07:27:01.315Z,99229.19
2018-12-10T07:28:31.251Z,99228.16
2018-12-10T07:30:01.266Z,99230.36
2018-12-10T07:31:31.169Z,99231.05
2018-12-10T07:33:01.071Z,99228.71
2018-12-10T07:34:30.985Z,99233.70
2018-12-10T07:36:00.879Z,99225.55
2018-12-10T07:37:30.794Z,99233.70
2018-12-10T07:39:00.720Z,99232.77
2018-12-10T07:40:30.787Z,99235.58
2018-12-10T07:42:00.684Z,99236.58
2018-12-10T07:43:30.579Z,99235.95
2018-12-10T07:45:00.471Z,99238.38
2018-12-10T07:46:30.491Z,99237.97
2018-12-10T07:48:00.494Z,99241.14
2018-12-10T07:49:30.397Z,99241.66
2018-12-10T07:51:00.286Z,99246.53
2018-12-10T07:52:30.202Z,99252.48
2018-12-10T07:54:00.355Z,99251.47
2018-12-10T07:55:30.671Z,99256.87
2018-12-10T07:57:00.575Z,99258.41
2018-12-10T07:58:30.531Z,99259.59
2018-12-10T08:00:00.558Z,99258.52
2018-12-10T08:01:30.585Z,99263.09
2018-12-10T08:03:00.720Z,99262.66
2018-12-10T08:09:19.032Z,99275.70
2018-12-10T08:10:48.943Z,99283.22
2018-12-10T08:12:18.962Z,99284.13
2018-12-10T08:13:48.903Z,99288.64
2018-12-10T08:15:18.852Z,99277.94
2018-12-10T08:16:48.792Z,99276.45
2018-12-10T08:18:18.715Z,99284.09
2018-12-10T08:19:48.646Z,99291.92
2018-12-10T08:21:18.663Z,99287.03
2018-12-10T08:22:56.523Z,99285.13
2018-12-10T08:24:26.464Z,99287.89
2018-12-10T08:25:56.381Z,99289.47
2018-12-10T08:27:26.458Z,99284.67
2018-12-10T08:30:28.310Z,99285.27
2018-12-10T08:31:03.197Z,99289.43
2018-12-10T08:31:58.299Z,99292.91
2018-12-10T08:33:28.474Z,99290.98
2018-12-10T08:34:58.427Z,99295.85
2018-12-10T08:36:28.451Z,99293.84
2018-12-10T08:37:58.491Z,99289.06
2018-12-10T08:39:28.447Z,99291.16
2018-12-10T08:40:58.363Z,99297.41
2018-12-10T08:42:28.482Z,99289.91
2018-12-10T08:43:58.459Z,99300.57
2018-12-10T08:45:28.389Z,99299.97
2018-12-10T08:47:05.878Z,99302.28
2018-12-10T08:48:49.045Z,99305.81
2018-12-10T08:50:19.281Z,99302.50
2018-12-10T08:51:49.229Z,99313.64
2018-12-10T08:53:19.316Z,99310.92
2018-12-10T08:54:49.407Z,99312.72
2018-12-10T08:56:19.366Z,99313.94
2018-12-10T08:57:49.352Z,99315.00
2018-12-10T08:59:19.326Z,99317.69
2018-12-10T09:00:49.607Z,99321.89
2018-12-10T09:02:19.615Z,99318.72
2018-12-10T09:03:49.664Z,99332.32
2018-12-10T09:05:19.737Z,99322.55
2018-12-10T09:06:54.768Z,99323.06
2018-12-10T09:08:24.970Z,99327.01
2018-12-10T09:09:55.204Z,99333.64
2018-12-10T09:11:25.204Z,99330.33
2018-12-10T09:12:55.332Z,99330.95
2018-12-10T09:14:25.383Z,99330.37
2018-12-10T09:15:55.396Z,99336.86
2018-12-10T09:17:26.257Z,99338.68
2018-12-10T09:18:56.323Z,99332.01
2018-12-10T09:20:26.378Z,99333.31
2018-12-10T09:21:56.328Z,99335.89
2018-12-10T09:23:53.089Z,99339.22
2018-12-10T09:25:24.731Z,99342.37
2018-12-10T09:26:55.540Z,99345.14
2018-12-10T09:28:25.644Z,99341.24
2018-12-10T09:29:55.823Z,99333.37
2018-12-10T09:31:25.889Z,99330.16
2018-12-10T09:32:56.831Z,99334.19
2018-12-10T09:34:27.493Z,99326.98
2018-12-10T09:35:57.483Z,99332.05
2018-12-10T09:37:27.478Z,99328.27
2018-12-10T09:38:57.626Z,99338.62
2018-12-10T09:40:27.696Z,99342.10
2018-12-10T09:41:58.889Z,99346.34
2018-12-10T09:43:28.947Z,99347.14
2018-12-10T09:44:58.972Z,99352.48
2018-12-10T09:46:29.175Z,99357.82
2018-12-10T09:47:59.168Z,99361.14
2018-12-10T09:49:29.181Z,99363.20
2018-12-10T09:50:59.367Z,99361.30
2018-12-10T09:52:29.544Z,99364.73
2018-12-10T09:53:59.731Z,99372.25
2018-12-10T09:55:29.836Z,99385.58
2018-12-10T09:56:59.876Z,99386.63
2018-12-10T09:58:29.924Z,99383.48
2018-12-10T10:00:00.180Z,99382.05
2018-12-10T10:01:41.373Z,99385.95
2018-12-10T10:03:11.531Z,99382.43
2018-12-10T10:04:41.993Z,99375.69
2018-12-10T10:06:12.264Z,99368.52
2018-12-10T10:07:42.734Z,99362.73
2018-12-10T10:09:13.331Z,99362.80
2018-12-10T10:10:43.620Z,99363.24
2018-12-10T10:12:13.691Z,99352.64
2018-12-10T10:13:43.791Z,99352.97
2018-12-10T10:15:14.020Z,99353.52
2018-12-10T10:16:44.130Z,99343.66
2018-12-10T10:18:14.339Z,99345.64
2018-12-10T10:19:44.436Z,99334.23
2018-12-10T10:21:14.591Z,99342.18
2018-12-10T10:22:44.907Z,99334.62
2018-12-10T10:24:16.201Z,99340.72
2018-12-10T10:25:46.538Z,99327.55
2018-12-10T10:27:16.853Z,99332.65
2018-12-10T10:28:47.307Z,99334.00
2018-12-10T10:30:17.659Z,99329.91
2018-12-10T10:31:47.911Z,99327.38
2018-12-10T10:33:17.951Z,99325.98
2018-12-10T10:34:48.091Z,99314.50
2018-12-10T10:36:18.285Z,99308.48
2018-12-10T10:37:48.670Z,99311.22
2018-12-10T10:39:18.699Z,99324.77
2018-12-10T10:40:48.853Z,99320.93
2018-12-10T10:42:18.936Z,99321.03
2018-12-10T10:43:48.902Z,99329.52
2018-12-10T10:45:19.133Z,99327.09
2018-12-10T10:46:49.519Z,99318.91
2018-12-10T10:48:19.513Z,99325.80
2018-12-10T10:49:49.758Z,99322.87
2018-12-10T10:51:19.735Z,99318.00
2018-12-10T10:52:49.831Z,99321.59
2018-12-10T10:54:19.945Z,99319.14
2018-12-10T10:55:50.039Z,99310.41
2018-12-10T10:57:20.031Z,99317.38
2018-12-10T10:58:50.095Z,99315.08
2018-12-10T11:00:26.147Z,99314.83
2018-12-10T11:02:04.115Z,99328.59
2018-12-10T11:03:37.136Z,99321.14
2018-12-10T11:05:07.434Z,99318.23
2018-12-10T11:06:37.476Z,99312.08
2018-12-10T11:08:07.491Z,99316.73
2018-12-10T11:09:37.541Z,99313.99
2018-12-10T11:11:07.703Z,99313.14
2018-12-10T11:12:37.812Z,99310.52
2018-12-10T11:14:07.893Z,99316.98
2018-12-10T11:15:38.085Z,99311.28
2018-12-10T11:17:08.295Z,99298.64
2018-12-10T11:18:38.462Z,99302.58
2018-12-10T11:20:09.523Z,99304.80
2018-12-10T11:21:52.618Z,99305.93
2018-12-10T11:23:22.879Z,99300.56
2018-12-10T11:24:53.180Z,99292.80
2018-12-10T11:26:23.565Z,99302.70
2018-12-10T11:27:53.756Z,99299.55
2018-12-10T11:29:23.884Z,99295.84
2018-12-10T11:30:54.083Z,99301.38
2018-12-10T11:32:24.299Z,99308.20
2018-12-10T11:33:54.638Z,99306.19
2018-12-10T11:35:24.693Z,99301.17
2018-12-10T11:36:55.129Z,99296.86
2018-12-10T11:38:25.382Z,99302.25
2018-12-10T11:39:55.580Z,99296.36
2018-12-10T11:41:25.748Z,99288.52
2018-12-10T11:42:55.845Z,99296.31
2018-12-10T11:44:25.923Z,99301.80
2018-12-10T11:46:03.515Z,99295.22
2018-12-10T11:47:33.675Z,99300.39
2018-12-10T11:49:03.796Z,99299.93
2018-12-10T11:50:34.294Z,99301.14
2018-12-10T11:52:04.573Z,99298.94
2018-12-10T11:53:34.708Z,99296.81
2018-12-10T11:55:05.287Z,99299.21
2018-12-10T11:56:35.335Z,99302.91
2018-12-10T11:58:05.369Z,99301.56
2018-12-10T11:59:35.602Z,99294.06
2018-12-10T12:01:05.672Z,99297.75
2018-12-10T12:02:35.672Z,99301.83
2018-12-10T12:04:06.180Z,99299.94
2018-12-10T12:05:49.516Z,99299.52
2018-12-10T12:07:19.670Z,99296.03
2018-12-10T12:08:49.742Z,99299.19
2018-12-10T12:10:19.916Z,99293.71
2018-12-10T12:11:49.944Z,99291.38
2018-12-10T12:13:20.149Z,99295.27
2018-12-10T12:14:50.520Z,99288.21
2018-12-10T12:16:20.751Z,99289.06
2018-12-10T12:17:50.770Z,99278.65
2018-12-10T12:19:20.988Z,99278.35
2018-12-10T12:20:51.524Z,99283.48
2018-12-10T12:22:22.659Z,99285.88
2018-12-10T12:23:52.848Z,99270.84
2018-12-10T12:25:23.079Z,99261.84
2018-12-10T12:26:53.219Z,99262.48
2018-12-10T12:28:23.255Z,99273.28
2018-12-10T12:29:54.112Z,99269.39
2018-12-10T12:31:24.176Z,99263.22
2018-12-10T12:32:54.303Z,99256.17
2018-12-10T12:34:32.599Z,99258.39
2018-12-10T12:36:10.454Z,99260.44
2018-12-10T12:37:40.889Z,99259.25
2018-12-10T12:39:10.985Z,99257.23
2018-12-10T12:40:41.006Z,99263.70
2018-12-10T12:42:11.070Z,99258.48
2018-12-10T12:43:41.061Z,99259.09
2018-12-10T12:45:11.288Z,99264.43
2018-12-10T12:46:41.279Z,99258.53
2018-12-10T12:48:11.251Z,99262.97
2018-12-10T12:49:54.618Z,99265.96
2018-12-10T12:51:24.557Z,99261.37
2018-12-10T12:52:54.532Z,99263.25
2018-12-10T12:54:24.497Z,99264.08
2018-12-10T12:55:54.619Z,99267.23
2018-12-10T12:57:24.601Z,99261.02
2018-12-10T12:58:55.626Z,99253.87
2018-12-10T13:00:27.167Z,99255.87
2018-12-10T13:01:57.571Z,99254.77
2018-12-10T13:03:27.522Z,99252.77
2018-12-10T13:04:57.662Z,99245.77
2018-12-10T13:06:27.847Z,99250.56
2018-12-10T13:07:57.816Z,99248.88
2018-12-10T13:09:27.862Z,99245.05
2018-12-10T13:10:57.828Z,99250.92
2018-12-10T13:12:27.795Z,99245.56
2018-12-10T13:13:58.001Z,99250.92
2018-12-10T13:15:28.003Z,99249.66
2018-12-10T13:16:58.015Z,99247.88
2018-12-10T13:18:28.096Z,99241.72
2018-12-10T13:19:58.351Z,99245.72
2018-12-10T13:21:28.511Z,99237.22
2018-12-10T13:22:58.462Z,99234.28
2018-12-10T13:24:28.397Z,99230.17
2018-12-10T13:25:58.668Z,99235.88
2018-12-10T13:27:28.604Z,99240.22
2018-12-10T13:29:05.933Z,99234.99
2018-12-10T13:30:36.110Z,99219.55
2018-12-10T13:32:06.436Z,99221.31
2018-12-10T13:33:36.482Z,99220.73
2018-12-10T13:35:06.668Z,99215.91
2018-12-10T13:36:36.631Z,99217.02
2018-12-10T13:38:12.345Z,99212.27
2018-12-10T13:39:39.566Z,99210.75
2018-12-10T13:41:10.076Z,99209.31
2018-12-10T13:42:40.403Z,99213.69
2018-12-10T13:44:10.638Z,99220.47
2018-12-10T13:45:40.729Z,99217.38
2018-12-10T13:48:48.011Z,99222.38
2018-12-10T13:50:18.156Z,99223.27
2018-12-10T13:51:48.150Z,99229.84
2018-12-10T13:53:18.191Z,99233.68
2018-12-10T13:54:48.182Z,99225.03
2018-12-10T13:56:18.221Z,99228.79
2018-12-10T13:57:48.242Z,99222.59
2018-12-10T13:59:18.447Z,99236.66
2018-12-10T14:00:51.042Z,99229.66
2018-12-10T14:02:20.662Z,99231.13
2018-12-10T14:03:50.690Z,99227.71
2018-12-10T14:05:20.682Z,99226.27
2018-12-10T14:06:50.675Z,99224.98
2018-12-10T14:08:30.618Z,99224.66
2018-12-10T14:10:00.625Z,99215.82
2018-12-10T14:11:30.606Z,99229.54
2018-12-10T14:13:00.625Z,99224.83
2018-12-10T14:14:30.682Z,99225.67
2018-12-10T14:16:00.785Z,99219.19
2018-12-10T14:17:30.834Z,99224.61
2018-12-10T14:19:01.170Z,99226.50
2018-12-10T14:20:31.110Z,99233.45
2018-12-10T14:22:01.209Z,99226.28
2018-12-10T14:23:31.289Z,99232.61
2018-12-10T14:25:01.644Z,99224.73
2018-12-10T14:26:31.612Z,99231.45
2018-12-10T14:28:01.689Z,99231.95
2018-12-10T14:29:31.787Z,99228.73
2018-12-10T14:31:02.366Z,99232.05
2018-12-10T14:32:32.451Z,99244.87
2018-12-10T14:34:08.211Z,99239.64
2018-12-10T14:35:38.220Z,99231.77
2018-12-10T14:37:08.311Z,99234.59
2018-12-10T14:38:38.790Z,99228.60
2018-12-10T14:40:08.936Z,99233.77
2018-12-10T14:41:39.182Z,99242.62
2018-12-10T14:43:09.139Z,99241.44
2018-12-10T14:44:39.088Z,99241.26
2018-12-10T14:46:09.286Z,99237.88
2018-12-10T14:47:39.239Z,99236.76
2018-12-10T14:49:09.287Z,99233.02
2018-12-10T14:50:39.443Z,99224.53
2018-12-10T14:52:09.395Z,99229.31
2018-12-10T14:53:39.350Z,99231.20
2018-12-10T14:55:09.504Z,99231.56
2018-12-10T14:56:39.570Z,99233.13
2018-12-10T14:58:09.585Z,99230.95
2018-12-10T14:59:39.536Z,99236.05
2018-12-10T15:01:09.577Z,99240.70
2018-12-10T15:02:39.879Z,99237.86
2018-12-10T15:04:09.936Z,99238.23
2018-12-10T15:05:39.902Z,99238.47
2018-12-10T15:07:10.009Z,99245.48
2018-12-10T15:08:39.978Z,99251.18
2018-12-10T15:10:10.716Z,99241.06
2018-12-10T15:11:40.661Z,99245.52
2018-12-10T15:13:10.619Z,99249.41
2018-12-10T15:14:40.616Z,99238.23
2018-12-10T15:16:10.713Z,99240.34
2018-12-10T15:17:40.679Z,99239.30
2018-12-10T15:19:10.649Z,99244.39
2018-12-10T15:20:40.772Z,99244.15
2018-12-10T15:22:10.702Z,99248.30
2018-12-10T15:23:40.643Z,99243.42
2018-12-10T15:25:10.833Z,99239.22
2018-12-10T15:26:41.187Z,99243.20
2018-12-10T15:28:11.328Z,99233.61
2018-12-10T15:29:41.632Z,99238.23
2018-12-10T15:31:11.639Z,99229.31
2018-12-10T15:37:29.469Z,99231.09
2018-12-10T15:38:59.416Z,99238.73
2018-12-10T15:40:29.581Z,99235.23
2018-12-10T15:41:59.534Z,99242.75
2018-12-10T15:43:29.512Z,99239.14
2018-12-10T15:44:59.420Z,99242.07
2018-12-10T15:46:44.593Z,99244.53
2018-12-10T15:48:15.539Z,99246.94
2018-12-10T15:49:45.683Z,99250.69
2018-12-10T15:51:15.896Z,99248.91
2018-12-10T15:52:45.816Z,99249.70
2018-12-10T15:54:15.924Z,99245.38
2018-12-10T15:55:46.098Z,99241.11
2018-12-10T15:57:16.117Z,99245.77
2018-12-10T15:58:46.170Z,99247.03
2018-12-10T16:00:16.239Z,99255.69
2018-12-10T16:01:46.342Z,99252.53
2018-12-10T16:03:16.251Z,99254.48
2018-12-10T16:04:46.467Z,99259.58
2018-12-10T16:06:16.402Z,99259.36
2018-12-10T16:07:46.350Z,99261.22
2018-12-10T16:09:16.271Z,99260.17
2018-12-10T16:10:46.220Z,99255.39
2018-12-10T16:12:16.216Z,99257.78
2018-12-10T16:13:46.136Z,99255.00
2018-12-10T16:15:16.076Z,99257.78
2018-12-10T16:16:46.155Z,99255.30
2018-12-10T16:18:16.135Z,99258.30
2018-12-10T16:19:46.105Z,99257.95
2018-12-10T16:21:16.040Z,99256.73
2018-12-10T16:22:45.954Z,99250.45
2018-12-10T16:24:15.883Z,99255.61
2018-12-10T16:25:46.100Z,99257.55
2018-12-10T16:27:16.516Z,99272.41
2018-12-10T16:28:46.804Z,99308.64
2018-12-10T16:30:17.284Z,99316.84
2018-12-10T16:31:47.245Z,99315.20
2018-12-10T16:33:17.391Z,99321.92
2018-12-10T16:34:47.848Z,99344.47
2018-12-10T16:36:18.042Z,99333.51
2018-12-10T16:37:48.901Z,99343.70
2018-12-10T16:39:18.919Z,99342.06
2018-12-10T16:40:48.836Z,99341.03
2018-12-10T16:42:19.006Z,99348.20
2018-12-10T16:43:49.110Z,99347.23
2018-12-10T16:45:19.032Z,99360.08
2018-12-10T16:46:48.994Z,99353.41
2018-12-10T16:48:18.890Z,99366.50
2018-12-10T16:49:48.812Z,99361.42
2018-12-10T16:51:19.803Z,99361.42
2018-12-10T16:52:50.043Z,99361.81
2018-12-10T16:54:20.108Z,99370.13
2018-12-10T16:55:50.029Z,99380.55
2018-12-10T16:57:19.975Z,99371.88
2018-12-10T16:58:50.042Z,99376.96
2018-12-10T17:00:20.444Z,99367.03
2018-12-10T17:01:50.396Z,99361.30
2018-12-10T17:03:20.307Z,99364.83
2018-12-10T17:04:50.358Z,99357.84
2018-12-10T17:06:20.422Z,99367.73
2018-12-10T17:07:50.328Z,99369.20
2018-12-10T17:09:28.863Z,99369.06
2018-12-10T17:10:58.831Z,99369.88
2018-12-10T17:12:28.787Z,99377.62
2018-12-10T17:14:10.049Z,99374.64
2018-12-10T17:15:40.119Z,99371.84
2018-12-10T17:17:10.134Z,99379.38
2018-12-10T17:18:40.246Z,99374.56
2018-12-10T17:20:10.469Z,99371.55
2018-12-10T17:21:40.677Z,99371.34
2018-12-10T17:23:10.577Z,99374.78
2018-12-10T17:24:40.475Z,99375.08
2018-12-10T17:26:10.349Z,99384.97
2018-12-10T17:28:32.527Z,99383.89
2018-12-10T17:30:03.361Z,99387.28
2018-12-10T17:31:33.303Z,99376.29
2018-12-10T17:33:03.762Z,99381.20
2018-12-10T17:34:33.704Z,99377.34
2018-12-10T17:36:03.767Z,99369.30
2018-12-10T17:37:33.755Z,99365.90
2018-12-10T17:39:07.940Z,99366.97
2018-12-10T17:40:37.897Z,99368.37
2018-12-10T17:42:08.122Z,99359.90
2018-12-10T17:43:38.266Z,99365.42
2018-12-10T17:45:08.776Z,99367.89
2018-12-10T17:46:38.948Z,99366.74
2018-12-10T17:48:09.144Z,99365.62
2018-12-10T17:49:39.591Z,99365.11
2018-12-10T17:51:09.656Z,99367.65
2018-12-10T17:52:39.840Z,99369.52
2018-12-10T17:54:10.163Z,99368.94
2018-12-10T18:01:11.443Z,99385.22
2018-12-10T18:02:41.483Z,99377.91
2018-12-10T18:04:12.271Z,99378.69
2018-12-10T18:05:42.736Z,99388.41